Station History

Weather Underground - logo

Station Historical Data
Daily Summary for July 21, 2017 Units:  English    Metric   Both
« Previous Day
Next Day »
Daily Weekly Monthly Yearly Custom
  High: Low: Average:
Temperature: 94.8 °F 63.0 °F 79.3 °F
Dew Point: 63.5 °F 53.7 °F 59.1 °F
Humidity: 81 % 26 % 54 %
Wind Speed: 5.8 mph 0.0 mph 1.4 mph
Wind Gust: 5.8 mph - -
Wind:- - SW
Pressure: 29.92 in 29.79 in -
Precipitation: 0.00 in    
Historical Graphs
 
 
Tabular Data for July 21, 2017
Time Temperature Dew Point Pressure Wind Wind Speed Wind Gust Humidity Rainfall Rate (Hourly)
00:04 75.3 °F 58.0 °F 29.86 in Calm     55 % 0.00 in
00:09 73.8 °F 57.6 °F 29.87 in Calm     57 % 0.00 in
00:14 72.5 °F 58.3 °F 29.86 in Calm     61 % 0.00 in
00:19 71.3 °F 57.6 °F 29.86 in Calm     62 % 0.00 in
00:24 70.7 °F 57.9 °F 29.86 in Calm     64 % 0.00 in
00:30 70.4 °F 58.9 °F 29.87 in Calm     67 % 0.00 in
00:35 70.1 °F 58.6 °F 29.87 in Calm     67 % 0.00 in
00:40 70.1 °F 58.2 °F 29.86 in Calm     66 % 0.00 in
00:45 69.9 °F 58.4 °F 29.87 in Calm     67 % 0.00 in
00:50 69.7 °F 58.3 °F 29.87 in Calm     67 % 0.00 in
00:55 69.5 °F 58.5 °F 29.87 in Calm     68 % 0.00 in
01:00 69.3 °F 58.3 °F 29.86 in Calm     68 % 0.00 in
01:05 69.2 °F 59.4 °F 29.87 in Calm     71 % 0.00 in
01:10 69.0 °F 58.4 °F 29.87 in Calm     69 % 0.00 in
01:15 68.8 °F 58.6 °F 29.87 in Calm     70 % 0.00 in
01:20 68.6 °F 59.2 °F 29.86 in Calm     72 % 0.00 in
01:21 68.6 °F 58.8 °F 29.86 in Calm     71 % 0.00 in
01:26 68.6 °F 58.4 °F 29.87 in Calm     70 % 0.00 in
01:31 68.4 °F 58.6 °F 29.86 in Calm     71 % 0.00 in
01:36 68.5 °F 58.7 °F 29.87 in Calm     71 % 0.00 in
01:41 68.8 °F 58.2 °F 29.87 in Calm     69 % 0.00 in
01:46 68.8 °F 57.8 °F 29.87 in Calm     68 % 0.00 in
01:51 68.6 °F 58.8 °F 29.86 in Calm     71 % 0.00 in
01:56 68.4 °F 58.2 °F 29.86 in Calm     70 % 0.00 in
02:01 68.3 °F 58.1 °F 29.86 in Calm     70 % 0.00 in
02:06 68.3 °F 58.1 °F 29.86 in Calm     70 % 0.00 in
02:11 68.1 °F 59.1 °F 29.86 in Calm     73 % 0.00 in
02:16 68.0 °F 59.0 °F 29.86 in Calm     73 % 0.00 in
02:21 67.7 °F 58.7 °F 29.87 in Calm     73 % 0.00 in
02:26 67.6 °F 58.6 °F 29.87 in Calm     73 % 0.00 in
02:31 67.3 °F 58.7 °F 29.87 in Calm     74 % 0.00 in
02:36 66.7 °F 58.5 °F 29.87 in Calm     75 % 0.00 in
02:41 66.2 °F 58.4 °F 29.87 in Calm     76 % 0.00 in
02:46 65.8 °F 58.7 °F 29.87 in Calm     78 % 0.00 in
02:51 65.5 °F 58.5 °F 29.87 in Calm     78 % 0.00 in
02:56 65.4 °F 58.0 °F 29.87 in Calm     77 % 0.00 in
03:01 65.4 °F 58.0 °F 29.86 in Calm     77 % 0.00 in
03:06 65.4 °F 58.0 °F 29.86 in Calm     77 % 0.00 in
03:11 65.3 °F 57.9 °F 29.86 in Calm     77 % 0.00 in
03:16 65.3 °F 57.9 °F 29.86 in Calm     77 % 0.00 in
03:21 65.2 °F 57.8 °F 29.87 in Calm     77 % 0.00 in
03:26 65.3 °F 58.3 °F 29.87 in NNW 1.2 mph   78 % 0.00 in
03:32 65.2 °F 58.2 °F 29.87 in Calm     78 % 0.00 in
03:37 65.0 °F 58.0 °F 29.87 in NNW 1.2 mph   78 % 0.00 in
03:42 64.9 °F 57.9 °F 29.87 in Calm     78 % 0.00 in
03:47 64.8 °F 58.1 °F 29.86 in Calm     79 % 0.00 in
03:52 64.6 °F 57.9 °F 29.86 in Calm     79 % 0.00 in
03:57 64.5 °F 57.8 °F 29.87 in Calm     79 % 0.00 in
04:02 64.4 °F 57.7 °F 29.87 in Calm     79 % 0.00 in
04:07 64.3 °F 58.0 °F 29.87 in Calm     80 % 0.00 in
04:12 64.1 °F 57.8 °F 29.87 in Calm     80 % 0.00 in
04:17 64.0 °F 58.1 °F 29.87 in Calm     81 % 0.00 in
04:22 63.9 °F 58.0 °F 29.87 in Calm     81 % 0.00 in
04:27 63.8 °F 57.9 °F 29.87 in Calm     81 % 0.00 in
04:32 63.9 °F 58.0 °F 29.87 in Calm     81 % 0.00 in
04:37 64.2 °F 57.5 °F 29.87 in Calm     79 % 0.00 in
04:42 64.3 °F 57.6 °F 29.87 in Calm     79 % 0.00 in
04:47 64.4 °F 57.7 °F 29.87 in Calm     79 % 0.00 in
04:50 64.4 °F 57.7 °F 29.87 in Calm     79 % 0.00 in
04:55 64.3 °F 57.3 °F 29.87 in Calm     78 % 0.00 in
05:00 64.4 °F 57.4 °F 29.87 in NNW 1.2 mph   78 % 0.00 in
05:05 64.4 °F 57.4 °F 29.87 in Calm     78 % 0.00 in
05:10 64.3 °F 57.6 °F 29.87 in NNW 1.2 mph   79 % 0.00 in
05:15 64.2 °F 57.5 °F 29.87 in Calm     79 % 0.00 in
05:20 64.0 °F 57.4 °F 29.87 in Calm     79 % 0.00 in
05:25 63.9 °F 57.3 °F 29.87 in NNW 1.2 mph   79 % 0.00 in
05:30 63.8 °F 57.2 °F 29.87 in Calm     79 % 0.00 in
05:36 63.7 °F 57.1 °F 29.88 in Calm     79 % 0.00 in
05:41 63.6 °F 57.3 °F 29.88 in Calm     80 % 0.00 in
05:46 63.4 °F 57.1 °F 29.88 in Calm     80 % 0.00 in
05:51 63.4 °F 57.1 °F 29.88 in Calm     80 % 0.00 in
05:56 63.3 °F 57.0 °F 29.88 in NNW 1.2 mph 1.2 mph 80 % 0.00 in
06:01 63.2 °F 56.9 °F 29.88 in NNW 1.2 mph 1.2 mph 80 % 0.00 in
06:06 63.1 °F 57.2 °F 29.88 in Calm     81 % 0.00 in
06:11 63.0 °F 57.1 °F 29.88 in Calm     81 % 0.00 in
06:16 63.0 °F 57.1 °F 29.89 in NNW 1.2 mph 1.2 mph 81 % 0.00 in
06:21 63.2 °F 57.3 °F 29.89 in Calm     81 % 0.00 in
06:26 63.2 °F 56.9 °F 29.89 in Calm     80 % 0.00 in
06:31 63.3 °F 57.0 °F 29.89 in Calm     80 % 0.00 in
06:36 63.3 °F 57.0 °F 29.89 in Calm     80 % 0.00 in
06:41 63.6 °F 57.3 °F 29.89 in Calm     80 % 0.00 in
06:46 63.8 °F 57.5 °F 29.89 in NNW 1.2 mph 1.2 mph 80 % 0.00 in
06:51 63.9 °F 57.6 °F 29.90 in NNW 1.2 mph 1.2 mph 80 % 0.00 in
06:56 64.2 °F 57.5 °F 29.90 in Calm     79 % 0.00 in
07:01 64.8 °F 58.8 °F 29.90 in NNW 1.2 mph   81 % 0.00 in
07:06 65.7 °F 59.0 °F 29.90 in Calm     79 % 0.00 in
07:11 66.6 °F 58.8 °F 29.90 in Calm     76 % 0.00 in
07:16 67.4 °F 58.8 °F 29.91 in SE 2.3 mph 2.3 mph 74 % 0.00 in
07:21 68.0 °F 58.6 °F 29.91 in Calm     72 % 0.00 in
07:26 68.5 °F 58.7 °F 29.91 in SE 3.5 mph 3.5 mph 71 % 0.00 in
07:31 68.8 °F 58.6 °F 29.91 in East 3.5 mph 3.5 mph 70 % 0.00 in
07:36 69.2 °F 58.6 °F 29.91 in East 2.0 mph 2.0 mph 69 % 0.00 in
07:41 69.7 °F 58.7 °F 29.91 in East 1.2 mph   68 % 0.00 in
07:46 70.2 °F 59.6 °F 29.91 in East 2.3 mph 2.3 mph 69 % 0.00 in
07:51 70.6 °F 59.1 °F 29.91 in East 3.5 mph 3.5 mph 67 % 0.00 in
07:56 71.1 °F 58.7 °F 29.92 in SSE 3.5 mph 3.5 mph 65 % 0.00 in
08:01 71.3 °F 58.9 °F 29.92 in ENE 2.3 mph 2.3 mph 65 % 0.00 in
08:06 71.5 °F 59.5 °F 29.92 in ENE 2.3 mph 2.3 mph 66 % 0.00 in
08:11 72.0 °F 59.2 °F 29.92 in SE 3.5 mph 3.5 mph 64 % 0.00 in
08:16 72.1 °F 59.2 °F 29.92 in East 2.3 mph 2.3 mph 64 % 0.00 in
08:21 72.2 °F 59.3 °F 29.92 in East 2.3 mph 2.3 mph 64 % 0.00 in
08:26 72.7 °F 58.9 °F 29.92 in East 2.0 mph 2.0 mph 62 % 0.00 in
08:31 73.2 °F 58.9 °F 29.92 in SSE 1.2 mph 1.2 mph 61 % 0.00 in
08:36 73.9 °F 59.1 °F 29.92 in SSW 2.3 mph 2.3 mph 60 % 0.00 in
08:38 74.0 °F 59.7 °F 29.92 in SE 2.3 mph 2.3 mph 61 % 0.00 in
08:43 74.1 °F 59.3 °F 29.92 in NE 3.5 mph 3.5 mph 60 % 0.00 in
08:48 74.0 °F 58.8 °F 29.92 in ESE 3.5 mph 3.5 mph 59 % 0.00 in
08:53 74.3 °F 59.5 °F 29.92 in East 1.2 mph 1.2 mph 60 % 0.00 in
08:58 75.0 °F 59.7 °F 29.92 in ESE 3.0 mph 3.0 mph 59 % 0.00 in
09:03 75.6 °F 59.3 °F 29.92 in ENE 2.3 mph 2.3 mph 57 % 0.00 in
09:08 76.3 °F 59.4 °F 29.92 in East 2.3 mph 2.3 mph 56 % 0.00 in
09:13 76.7 °F 59.3 °F 29.92 in SSE 3.5 mph 3.5 mph 55 % 0.00 in
09:18 76.9 °F 59.0 °F 29.92 in East 2.3 mph 2.3 mph 54 % 0.00 in
09:23 77.0 °F 58.6 °F 29.92 in NE 3.5 mph 3.5 mph 53 % 0.00 in
09:24 77.1 °F 58.6 °F 29.92 in NE 3.5 mph 3.5 mph 53 % 0.00 in
09:29 77.5 °F 59.0 °F 29.92 in South 2.3 mph 2.3 mph 53 % 0.00 in
09:34 78.3 °F 59.8 °F 29.92 in SSW 2.3 mph 2.3 mph 53 % 0.00 in
09:39 78.8 °F 60.2 °F 29.92 in SSE 3.5 mph 3.5 mph 53 % 0.00 in
09:44 78.9 °F 59.8 °F 29.92 in East 2.3 mph 2.3 mph 52 % 0.00 in
09:49 79.2 °F 59.5 °F 29.92 in SE 4.6 mph 4.6 mph 51 % 0.00 in
09:54 79.3 °F 59.6 °F 29.92 in ESE 5.8 mph 5.8 mph 51 % 0.00 in
09:59 79.8 °F 59.5 °F 29.92 in South 4.6 mph 4.6 mph 50 % 0.00 in
10:04 79.8 °F 60.1 °F 29.92 in SSE 3.5 mph 3.5 mph 51 % 0.00 in
10:09 80.1 °F 59.2 °F 29.92 in South 3.5 mph 3.5 mph 49 % 0.00 in
10:14 80.3 °F 60.0 °F 29.92 in SSW 3.5 mph 3.5 mph 50 % 0.00 in
10:19 80.9 °F 59.4 °F 29.92 in SE 3.5 mph 3.5 mph 48 % 0.00 in
10:24 81.1 °F 59.6 °F 29.92 in South 3.5 mph 3.5 mph 48 % 0.00 in
10:29 81.6 °F 60.0 °F 29.92 in Calm     48 % 0.00 in
10:34 82.2 °F 60.0 °F 29.92 in SSE 3.5 mph 3.5 mph 47 % 0.00 in
10:39 82.3 °F 59.4 °F 29.92 in SE 4.6 mph 4.6 mph 46 % 0.00 in
10:44 82.6 °F 60.3 °F 29.92 in South 2.0 mph 2.0 mph 47 % 0.00 in
10:49 82.7 °F 60.4 °F 29.92 in SSE 3.5 mph 3.5 mph 47 % 0.00 in
10:54 82.8 °F 59.9 °F 29.91 in ESE 2.3 mph 2.3 mph 46 % 0.00 in
10:59 83.3 °F 60.4 °F 29.91 in NNE 2.3 mph 2.3 mph 46 % 0.00 in
11:04 83.5 °F 60.5 °F 29.92 in WSW 2.3 mph 2.3 mph 46 % 0.00 in
11:09 83.6 °F 60.0 °F 29.91 in NW 2.3 mph 2.3 mph 45 % 0.00 in
11:14 83.9 °F 60.3 °F 29.91 in SE 3.5 mph 3.5 mph 45 % 0.00 in
11:19 84.3 °F 61.3 °F 29.91 in NW 3.0 mph 3.0 mph 46 % 0.00 in
11:24 84.4 °F 62.6 °F 29.91 in East 1.2 mph 1.2 mph 48 % 0.00 in
11:29 84.5 °F 60.8 °F 29.91 in Calm   0.1 mph 45 % 0.00 in
11:34 84.8 °F 61.1 °F 29.91 in SSE 3.5 mph 3.5 mph 45 % 0.00 in
11:39 84.9 °F 63.0 °F 29.91 in East 1.2 mph   48 % 0.00 in
11:44 85.0 °F 60.0 °F 29.91 in NW 2.3 mph 2.3 mph 43 % 0.00 in
11:49 85.5 °F 61.7 °F 29.91 in ESE 2.3 mph 2.3 mph 45 % 0.00 in
11:54 85.9 °F 63.3 °F 29.91 in South 1.2 mph 1.2 mph 47 % 0.00 in
11:55 85.9 °F 62.1 °F 29.91 in SSE 2.3 mph 2.3 mph 45 % 0.00 in
12:00 86.3 °F 61.8 °F 29.91 in SE 2.3 mph 2.3 mph 44 % 0.00 in
12:05 86.6 °F 62.1 °F 29.91 in NW 1.2 mph 1.2 mph 44 % 0.00 in
12:10 86.8 °F 62.3 °F 29.91 in WNW 1.2 mph 1.2 mph 44 % 0.00 in
12:15 87.5 °F 63.5 °F 29.91 in SSE 3.0 mph 3.0 mph 45 % 0.00 in
12:20 88.2 °F 62.9 °F 29.90 in West 3.5 mph 3.5 mph 43 % 0.00 in
12:25 88.4 °F 63.1 °F 29.90 in SE 1.2 mph 1.2 mph 43 % 0.00 in
12:30 88.4 °F 63.1 °F 29.90 in SE 2.3 mph 2.3 mph 43 % 0.00 in
12:35 88.5 °F 63.1 °F 29.90 in SE 2.3 mph 2.3 mph 43 % 0.00 in
12:40 88.6 °F 62.6 °F 29.90 in WSW 3.5 mph 3.5 mph 42 % 0.00 in
12:45 88.5 °F 61.8 °F 29.90 in NNW 4.6 mph 4.6 mph 41 % 0.00 in
12:50 88.2 °F 60.8 °F 29.89 in NW 2.3 mph 2.3 mph 40 % 0.00 in
12:55 88.7 °F 60.6 °F 29.89 in West 2.3 mph 2.3 mph 39 % 0.00 in
13:00 89.3 °F 60.4 °F 29.89 in WNW 1.2 mph 1.2 mph 38 % 0.00 in
13:05 89.8 °F 62.3 °F 29.89 in South 2.3 mph 2.3 mph 40 % 0.00 in
13:10 90.6 °F 61.5 °F 29.89 in NNW 2.3 mph 2.3 mph 38 % 0.00 in
13:15 90.5 °F 62.9 °F 29.88 in ESE 1.2 mph 1.2 mph 40 % 0.00 in
13:20 90.9 °F 63.2 °F 29.88 in NW 1.2 mph 1.2 mph 40 % 0.00 in
13:25 91.6 °F 60.9 °F 29.88 in ENE 3.5 mph 3.5 mph 36 % 0.00 in
13:30 91.7 °F 61.7 °F 29.88 in NNW 3.5 mph 3.5 mph 37 % 0.00 in
13:35 91.5 °F 61.6 °F 29.88 in NNE 2.3 mph 2.3 mph 37 % 0.00 in
13:40 91.5 °F 61.6 °F 29.88 in NNE 2.3 mph 2.3 mph 37 % 0.00 in
13:45 91.5 °F 61.6 °F 29.88 in WNW 1.2 mph 1.2 mph 37 % 0.00 in
13:50 91.8 °F 61.0 °F 29.87 in NE 3.5 mph 3.5 mph 36 % 0.00 in
13:55 92.0 °F 60.4 °F 29.87 in NNW 2.3 mph 2.3 mph 35 % 0.00 in
13:56 92.0 °F 60.4 °F 29.87 in West 2.3 mph 2.3 mph 35 % 0.00 in
14:01 92.2 °F 61.4 °F 29.86 in SE 3.5 mph 3.5 mph 36 % 0.00 in
14:06 92.6 °F 61.7 °F 29.86 in ESE 2.3 mph 2.3 mph 36 % 0.00 in
14:11 93.0 °F 60.5 °F 29.86 in SE 1.2 mph 1.2 mph 34 % 0.00 in
14:16 93.4 °F 60.0 °F 29.86 in NW 1.2 mph 1.2 mph 33 % 0.00 in
14:21 93.9 °F 61.3 °F 29.86 in SSE 2.3 mph 2.3 mph 34 % 0.00 in
14:26 94.3 °F 56.2 °F 29.86 in NW 1.2 mph 1.2 mph 28 % 0.00 in
14:31 93.8 °F 56.7 °F 29.86 in WNW 2.3 mph 2.3 mph 29 % 0.00 in
14:36 93.6 °F 56.6 °F 29.85 in NNE 3.5 mph 3.5 mph 29 % 0.00 in
14:41 93.5 °F 57.4 °F 29.85 in WNW 1.2 mph 1.2 mph 30 % 0.00 in
14:46 93.7 °F 57.6 °F 29.85 in NNW 2.3 mph 2.3 mph 30 % 0.00 in
14:51 93.7 °F 57.6 °F 29.85 in North 3.5 mph 3.5 mph 30 % 0.00 in
14:56 94.3 °F 56.2 °F 29.84 in West 2.3 mph 2.3 mph 28 % 0.00 in
15:01 94.7 °F 56.5 °F 29.84 in North 1.2 mph 1.2 mph 28 % 0.00 in
15:06 94.5 °F 58.3 °F 29.84 in NW 2.3 mph 2.3 mph 30 % 0.00 in
15:11 94.8 °F 57.6 °F 29.84 in WNW 3.5 mph 3.5 mph 29 % 0.00 in
15:13 94.8 °F 58.5 °F 29.84 in WNW 3.5 mph 3.5 mph 30 % 0.00 in
15:18 94.1 °F 59.7 °F 29.84 in WNW 5.8 mph 5.8 mph 32 % 0.00 in
15:23 93.8 °F 58.6 °F 29.84 in NW 2.3 mph 2.3 mph 31 % 0.00 in
15:28 93.9 °F 60.4 °F 29.83 in NW 3.5 mph 3.5 mph 33 % 0.00 in
15:33 93.9 °F 59.6 °F 29.83 in SSE 3.5 mph 3.5 mph 32 % 0.00 in
15:38 94.2 °F 59.8 °F 29.83 in NW 4.6 mph 4.6 mph 32 % 0.00 in
15:43 93.6 °F 59.3 °F 29.83 in WNW 3.5 mph 3.5 mph 32 % 0.00 in
15:48 93.4 °F 59.1 °F 29.83 in NW 2.3 mph 2.3 mph 32 % 0.00 in
15:53 93.7 °F 59.4 °F 29.83 in WNW 3.5 mph 3.5 mph 32 % 0.00 in
15:58 93.3 °F 57.2 °F 29.83 in WSW 3.5 mph 3.5 mph 30 % 0.00 in
16:03 93.6 °F 57.5 °F 29.83 in SW 3.5 mph 3.5 mph 30 % 0.00 in
16:08 93.3 °F 56.3 °F 29.82 in NW 3.5 mph 3.5 mph 29 % 0.00 in
16:13 93.6 °F 58.4 °F 29.82 in NW 2.3 mph 2.3 mph 31 % 0.00 in
16:18 93.7 °F 55.7 °F 29.82 in NW 3.5 mph 3.5 mph 28 % 0.00 in
16:23 93.9 °F 53.8 °F 29.82 in NW 3.5 mph 3.5 mph 26 % 0.00 in
16:25 93.8 °F 53.7 °F 29.82 in WNW 3.5 mph 3.5 mph 26 % 0.00 in
16:30 94.0 °F 56.9 °F 29.82 in NNW 2.3 mph 2.3 mph 29 % 0.00 in
16:35 94.0 °F 56.9 °F 29.82 in NW 4.6 mph 4.6 mph 29 % 0.00 in
16:40 93.9 °F 56.8 °F 29.82 in NNE 3.5 mph 3.5 mph 29 % 0.00 in
16:45 93.7 °F 55.7 °F 29.81 in WNW 2.3 mph 2.3 mph 28 % 0.00 in
16:50 93.9 °F 56.8 °F 29.81 in WNW 2.3 mph 2.3 mph 29 % 0.00 in
16:55 94.0 °F 56.9 °F 29.81 in NW 2.3 mph 2.3 mph 29 % 0.00 in
17:00 93.9 °F 56.8 °F 29.81 in NW 3.0 mph 3.0 mph 29 % 0.00 in
17:06 93.7 °F 56.6 °F 29.81 in NW 3.5 mph 3.5 mph 29 % 0.00 in
17:11 93.9 °F 56.8 °F 29.81 in NW 4.0 mph 4.0 mph 29 % 0.00 in
17:16 93.6 °F 56.6 °F 29.81 in NW 3.5 mph 3.5 mph 29 % 0.00 in
17:21 93.6 °F 58.4 °F 29.80 in North 4.0 mph 4.0 mph 31 % 0.00 in
17:26 93.8 °F 58.6 °F 29.80 in NW 2.3 mph 2.3 mph 31 % 0.00 in
17:31 93.6 °F 57.5 °F 29.80 in NW 3.5 mph 3.5 mph 30 % 0.00 in
17:36 93.8 °F 58.6 °F 29.80 in NW 2.3 mph 2.3 mph 31 % 0.00 in
17:41 94.0 °F 57.8 °F 29.80 in West 3.5 mph 3.5 mph 30 % 0.00 in
17:46 93.8 °F 59.5 °F 29.80 in WNW 1.2 mph 1.2 mph 32 % 0.00 in
17:51 93.9 °F 57.8 °F 29.80 in NNW 3.5 mph 3.5 mph 30 % 0.00 in
17:56 93.8 °F 57.7 °F 29.80 in NNW 1.2 mph 1.2 mph 30 % 0.00 in
18:01 93.8 °F 57.7 °F 29.79 in WNW 3.5 mph 3.5 mph 30 % 0.00 in
18:06 93.8 °F 58.6 °F 29.80 in WNW 2.3 mph 2.3 mph 31 % 0.00 in
18:11 93.5 °F 57.4 °F 29.79 in NW 2.3 mph 2.3 mph 30 % 0.00 in
18:16 93.5 °F 58.3 °F 29.80 in NW 1.2 mph 1.2 mph 31 % 0.00 in
18:21 93.4 °F 58.2 °F 29.79 in NW 2.3 mph 2.3 mph 31 % 0.00 in
18:26 93.2 °F 59.8 °F 29.79 in NW 1.2 mph   33 % 0.00 in
18:31 92.8 °F 57.7 °F 29.79 in NW 2.0 mph 2.0 mph 31 % 0.00 in
18:36 92.6 °F 57.6 °F 29.79 in Calm     31 % 0.00 in
18:41 92.4 °F 56.5 °F 29.79 in WNW 2.3 mph 2.3 mph 30 % 0.00 in
18:46 92.0 °F 57.9 °F 29.79 in WNW 1.2 mph 1.2 mph 32 % 0.00 in
18:51 91.9 °F 56.9 °F 29.79 in NW 1.2 mph   31 % 0.00 in
18:56 91.6 °F 57.6 °F 29.79 in NW 1.2 mph 1.2 mph 32 % 0.00 in
19:01 91.1 °F 57.1 °F 29.79 in NW 1.2 mph 1.2 mph 32 % 0.00 in
19:06 90.6 °F 56.7 °F 29.79 in NW 1.2 mph 1.2 mph 32 % 0.00 in
19:11 90.2 °F 57.2 °F 29.79 in Calm     33 % 0.00 in
19:16 89.9 °F 56.9 °F 29.79 in West 1.2 mph 1.2 mph 33 % 0.00 in
19:21 89.5 °F 57.4 °F 29.79 in West 1.0 mph 1.0 mph 34 % 0.00 in
19:26 89.2 °F 57.2 °F 29.79 in Calm     34 % 0.00 in
19:31 88.9 °F 57.7 °F 29.79 in Calm     35 % 0.00 in
19:36 88.7 °F 56.7 °F 29.79 in West 1.2 mph 1.2 mph 34 % 0.00 in
19:41 88.5 °F 57.4 °F 29.79 in Calm     35 % 0.00 in
19:46 88.2 °F 56.3 °F 29.79 in Calm     34 % 0.00 in
19:51 87.7 °F 57.4 °F 29.79 in Calm     36 % 0.00 in
19:56 87.2 °F 58.5 °F 29.79 in Calm     38 % 0.00 in
20:01 86.6 °F 58.7 °F 29.80 in Calm     39 % 0.00 in
20:06 85.9 °F 58.1 °F 29.79 in Calm     39 % 0.00 in
20:11 85.3 °F 59.6 °F 29.80 in Calm     42 % 0.00 in
20:16 84.7 °F 61.0 °F 29.79 in Calm     45 % 0.00 in
20:21 84.1 °F 59.8 °F 29.80 in Calm     44 % 0.00 in
20:26 83.6 °F 61.2 °F 29.80 in Calm     47 % 0.00 in
20:31 83.0 °F 60.7 °F 29.80 in Calm     47 % 0.00 in
20:36 82.4 °F 59.5 °F 29.80 in Calm     46 % 0.00 in
20:41 82.0 °F 59.8 °F 29.80 in Calm     47 % 0.00 in
20:46 81.7 °F 60.1 °F 29.80 in Calm     48 % 0.00 in
20:51 81.4 °F 59.8 °F 29.80 in Calm     48 % 0.00 in
20:56 81.1 °F 59.6 °F 29.80 in Calm     48 % 0.00 in
21:01 80.8 °F 59.3 °F 29.80 in Calm     48 % 0.00 in
21:06 80.5 °F 59.6 °F 29.80 in Calm     49 % 0.00 in
21:11 80.2 °F 61.0 °F 29.81 in Calm     52 % 0.00 in
21:16 79.9 °F 59.6 °F 29.81 in Calm     50 % 0.00 in
21:21 79.8 °F 58.4 °F 29.81 in Calm     48 % 0.00 in
21:26 79.9 °F 59.6 °F 29.81 in Calm     50 % 0.00 in
21:31 79.6 °F 61.0 °F 29.81 in Calm     53 % 0.00 in
21:36 79.1 °F 61.0 °F 29.81 in Calm     54 % 0.00 in
21:41 78.7 °F 61.2 °F 29.81 in Calm     55 % 0.00 in
21:46 78.4 °F 60.9 °F 29.82 in Calm     55 % 0.00 in
21:52 78.5 °F 61.0 °F 29.82 in Calm     55 % 0.00 in
21:57 78.7 °F 60.7 °F 29.82 in Calm     54 % 0.00 in
22:02 78.6 °F 62.6 °F 29.82 in Calm     58 % 0.00 in
22:07 78.3 °F 61.3 °F 29.82 in Calm     56 % 0.00 in
22:12 77.9 °F 62.4 °F 29.82 in Calm     59 % 0.00 in
22:17 77.8 °F 61.8 °F 29.82 in Calm     58 % 0.00 in
22:22 77.6 °F 62.1 °F 29.82 in Calm     59 % 0.00 in
22:27 77.2 °F 63.2 °F 29.82 in Calm     62 % 0.00 in
22:32 76.8 °F 61.9 °F 29.82 in Calm     60 % 0.00 in
22:37 76.6 °F 61.2 °F 29.82 in Calm     59 % 0.00 in
22:42 76.5 °F 61.1 °F 29.83 in Calm     59 % 0.00 in
22:47 76.4 °F 61.0 °F 29.82 in Calm     59 % 0.00 in
22:52 76.3 °F 61.4 °F 29.83 in Calm     60 % 0.00 in
22:57 76.0 °F 61.1 °F 29.83 in Calm     60 % 0.00 in
23:02 75.8 °F 61.4 °F 29.83 in Calm     61 % 0.00 in
23:07 75.5 °F 62.0 °F 29.83 in Calm     63 % 0.00 in
23:12 75.2 °F 61.3 °F 29.83 in Calm     62 % 0.00 in
23:17 75.3 °F 60.9 °F 29.83 in Calm     61 % 0.00 in
23:22 75.3 °F 60.9 °F 29.83 in Calm     61 % 0.00 in
23:27 75.2 °F 60.4 °F 29.83 in Calm     60 % 0.00 in
23:32 75.3 °F 61.8 °F 29.83 in Calm     63 % 0.00 in
23:37 75.1 °F 61.6 °F 29.83 in Calm     63 % 0.00 in
23:46 74.6 °F 62.1 °F 29.83 in Calm     65 % 0.00 in
23:49 74.4 °F 61.0 °F 29.83 in Calm     63 % 0.00 in
23:55 74.4 °F 60.1 °F 29.83 in Calm     61 % 0.00 in
Park Place, Exeter, Tulare County, California, USA
Compliments of Weather Underground - 2.75 mb